Terminal Aerodrome Forecast
Issued by NWS Shreveport, LA

Home | Current Version | Previous Version | Text Only | Print | Product List | Glossary On
Versions: 1 2 3 4 5 6 7 8 9 10 11 12 13 14 15 16
000
FTUS44 KSHV 232341
TAFELD
TAF
KELD 232341Z 2400/2424 11006KT P6SM SCT050 BKN250
     FM240900 14006KT P6SM OVC015
     FM241900 16012KT P6SM VCTS BKN025CB
     FM242200 16013G20KT 5SM -TSRA BR OVC025CB=

USA.gov is the U.S. government's official web portal to all federal, state and local government web resources and services.